Time;durP1;ratioP1;P1;durP2;ratioP2;P2;SDS_P1;SDS_P2;PMS_P1;PMS_P2;Temp;Humidity;BMP_temperature;BMP_pressure;BME280_temperature;BME280_humidity;BME280_pressure;Samples;Min_cycle;Max_cycle;Signal;HPM_P1;HPM_P2
2020/12/24 00:00:54;;;;;;;13.35;9.23;;;;;;;0.99;95.85;92940.03;1839521;77;21160;-76
2020/12/24 00:03:22;;;;;;;14.60;9.03;;;;;;;1.02;96.41;92938.57;1836064;77;21606;-75
2020/12/24 00:05:50;;;;;;;11.43;7.55;;;;;;;1.09;96.36;92949.42;1835570;77;21179;-71
2020/12/24 00:08:19;;;;;;;13.13;8.23;;;;;;;1.12;96.36;92962.12;1836082;78;21199;-74
2020/12/24 00:10:48;;;;;;;10.72;6.72;;;;;;;1.15;96.42;92958.19;1814817;78;21799;-74
2020/12/24 00:13:16;;;;;;;10.25;6.37;;;;;;;1.19;96.46;92959.05;1779979;79;21191;-74
2020/12/24 00:15:44;;;;;;;8.70;4.72;;;;;;;1.25;96.76;92959.58;1796065;77;21171;-75
2020/12/24 00:18:14;;;;;;;6.40;5.20;;;;;;;1.33;96.38;92963.97;1824771;78;21208;-75
2020/12/24 00:20:43;;;;;;;4.45;3.87;;;;;;;1.32;96.23;92961.09;1802916;76;21610;-74
2020/12/24 00:23:11;;;;;;;7.35;5.40;;;;;;;1.28;95.90;92968.27;1872151;76;21552;-74
2020/12/24 00:25:40;;;;;;;8.68;5.92;;;;;;;1.25;96.74;92964.16;1818374;76;21192;-76
2020/12/24 00:28:08;;;;;;;6.83;4.58;;;;;;;1.31;96.80;92973.47;1845997;76;21146;-74
2020/12/24 00:30:41;;;;;;;7.87;5.90;;;;;;;1.36;96.89;92974.00;1850287;76;21128;-72
2020/12/24 00:33:08;;;;;;;10.58;7.20;;;;;;;1.37;96.67;92978.79;1812487;75;21827;-75
2020/12/24 00:35:38;;;;;;;13.03;8.83;;;;;;;1.31;96.12;92970.23;1871850;76;21179;-77
2020/12/24 00:38:06;;;;;;;18.12;12.15;;;;;;;1.28;96.50;92969.61;1872671;76;21175;-74
2020/12/24 00:40:34;;;;;;;18.98;12.43;;;;;;;1.27;96.97;92972.05;1873355;76;21169;-74
2020/12/24 00:43:02;;;;;;;26.65;17.15;;;;;;;1.29;96.86;92970.38;1851985;76;21145;-75
2020/12/24 00:45:30;;;;;;;26.93;17.12;;;;;;;1.29;97.04;92961.78;1845535;76;21481;-75
2020/12/24 00:47:58;;;;;;;24.05;14.93;;;;;;;1.31;97.11;92969.45;1843401;76;21170;-76
2020/12/24 00:50:26;;;;;;;15.65;9.78;;;;;;;1.33;97.02;92957.28;1807273;79;21168;-73
2020/12/24 00:52:54;;;;;;;17.37;11.45;;;;;;;1.34;97.07;92956.70;1777893;79;21199;-76
2020/12/24 00:55:25;;;;;;;17.73;10.35;;;;;;;1.34;97.07;92942.75;1797262;78;21439;-75
2020/12/24 00:57:54;;;;;;;4.47;3.70;;;;;;;1.36;97.08;92950.45;1827469;76;21015;-76
2020/12/24 01:00:22;;;;;;;4.47;3.55;;;;;;;1.36;96.95;92951.80;1836218;77;22051;-75
2020/12/24 01:02:51;;;;;;;3.92;3.52;;;;;;;1.36;97.07;92951.23;1811613;78;21587;-74
2020/12/24 01:05:20;;;;;;;3.80;3.37;;;;;;;1.38;96.95;92940.92;1829534;77;21126;-77
2020/12/24 01:07:48;;;;;;;7.05;5.70;;;;;;;1.42;97.19;92943.69;1822652;77;21634;-76
2020/12/24 01:10:16;;;;;;;5.10;4.15;;;;;;;1.45;97.13;92941.66;1783904;79;21484;-75
2020/12/24 01:12:44;;;;;;;5.97;4.60;;;;;;;1.48;96.98;92929.47;1770226;80;22496;-76
2020/12/24 01:15:12;;;;;;;13.18;9.50;;;;;;;1.46;96.67;92938.61;1797711;79;21145;-73
2020/12/24 01:17:41;;;;;;;12.00;8.58;;;;;;;1.45;96.57;92934.95;1772691;81;21160;-76
2020/12/24 01:20:09;;;;;;;12.13;7.67;;;;;;;1.47;96.62;92946.11;1798544;78;21634;-75
2020/12/24 01:22:39;;;;;;;11.28;7.97;;;;;;;1.45;96.36;92924.23;1801186;79;21591;-76
2020/12/24 01:25:07;;;;;;;9.25;6.65;;;;;;;1.43;96.53;92922.48;1803638;79;22124;-74
2020/12/24 01:27:35;;;;;;;8.53;5.80;;;;;;;1.43;96.45;92907.75;1818387;78;21168;-75
2020/12/24 01:30:04;;;;;;;11.78;8.60;;;;;;;1.41;96.39;92908.08;1801298;79;21164;-76
2020/12/24 01:32:32;;;;;;;15.98;10.03;;;;;;;1.40;96.58;92896.39;1792134;80;21151;-77
2020/12/24 01:35:00;;;;;;;15.75;10.65;;;;;;;1.41;96.47;92880.52;1800216;78;21152;-78
2020/12/24 01:37:29;;;;;;;19.75;13.75;;;;;;;1.35;96.18;92884.02;1794887;79;21626;-75
2020/12/24 01:39:57;;;;;;;21.00;14.98;;;;;;;1.30;96.20;92879.52;1824418;78;21196;-75
2020/12/24 01:42:27;;;;;;;18.73;13.62;;;;;;;1.27;95.88;92861.45;1831722;77;21141;-74
2020/12/24 01:44:57;;;;;;;15.98;10.48;;;;;;;1.21;95.92;92859.63;1820596;78;21174;-75
2020/12/24 01:47:25;;;;;;;9.63;6.72;;;;;;;1.19;96.44;92855.94;1779855;78;21239;-74
2020/12/24 01:49:53;;;;;;;11.10;7.55;;;;;;;1.38;98.53;92842.37;1845243;76;21647;-73
2020/12/24 01:52:34;;;;;;;10.03;6.58;;;;;;;1.56;98.03;92837.38;1852947;76;21171;-77
2020/12/24 01:55:11;;;;;;;9.05;5.60;;;;;;;1.69;98.11;92820.02;1812914;79;21199;-77
2020/12/24 01:57:39;;;;;;;13.43;8.28;;;;;;;1.86;98.00;92801.39;1810493;78;21176;-76
2020/12/24 02:00:09;;;;;;;10.25;7.80;;;;;;;2.00;97.66;92811.05;1831640;78;21471;-74
2020/12/24 02:02:40;;;;;;;8.98;5.53;;;;;;;2.05;97.35;92809.41;1849881;77;21166;-75
2020/12/24 02:05:08;;;;;;;10.25;5.90;;;;;;;2.08;97.08;92804.67;1838207;77;21141;-74
2020/12/24 02:07:36;;;;;;;5.65;3.30;;;;;;;2.12;97.23;92824.28;1840774;77;21207;-77
2020/12/24 02:10:05;;;;;;;3.02;2.30;;;;;;;2.18;97.20;92812.68;1816548;77;21103;-76
2020/12/24 02:12:35;;;;;;;4.30;3.15;;;;;;;2.28;97.67;92805.39;1799869;77;21605;-77
2020/12/24 02:15:03;;;;;;;4.35;3.50;;;;;;;2.43;97.58;92805.84;1808265;79;21564;-77
2020/12/24 02:17:32;;;;;;;3.77;2.87;;;;;;;2.51;97.17;92812.09;1827280;78;21671;-76
2020/12/24 02:20:00;;;;;;;3.08;2.08;;;;;;;2.63;97.12;92819.18;1840837;77;21157;-76
2020/12/24 02:22:28;;;;;;;1.65;1.55;;;;;;;2.75;96.61;92792.16;1838671;77;21189;-75
2020/12/24 02:24:58;;;;;;;3.52;1.70;;;;;;;2.88;96.47;92812.87;1803303;78;21161;-77
2020/12/24 02:27:26;;;;;;;3.42;2.35;;;;;;;3.02;96.14;92813.08;1776917;77;21467;-76
2020/12/24 02:29:54;;;;;;;1.45;1.12;;;;;;;3.12;95.73;92811.13;1834782;77;21161;-78
2020/12/24 02:32:22;;;;;;;2.77;1.67;;;;;;;3.16;95.05;92802.54;1832999;77;21146;-74
2020/12/24 02:34:55;;;;;;;2.77;1.70;;;;;;;3.21;94.88;92802.02;1870123;76;21137;-75
2020/12/24 02:37:24;;;;;;;0.80;0.80;;;;;;;3.26;94.65;92790.37;1868650;76;21445;-76
2020/12/24 02:39:52;;;;;;;2.10;1.62;;;;;;;3.41;93.69;92775.98;1871215;75;21261;-78
2020/12/24 02:42:20;;;;;;;2.50;2.17;;;;;;;3.60;93.62;92790.41;1863850;76;21125;-77
2020/12/24 02:44:49;;;;;;;4.40;3.77;;;;;;;3.67;92.63;92781.09;1822395;76;21262;-76
2020/12/24 02:47:17;;;;;;;4.20;3.40;;;;;;;3.63;91.61;92771.63;1818722;78;21480;-79
2020/12/24 02:49:47;;;;;;;4.45;3.42;;;;;;;3.50;90.60;92770.89;1812455;78;21132;-75
2020/12/24 02:52:15;;;;;;;1.12;1.02;;;;;;;3.39;91.62;92761.38;1813097;79;21656;-75
2020/12/24 02:54:43;;;;;;;0.93;0.70;;;;;;;3.40;92.58;92766.38;1794949;76;21530;-78
2020/12/24 02:57:12;;;;;;;0.93;0.70;;;;;;;3.54;92.83;92772.50;1836771;78;21219;-77
2020/12/24 02:59:40;;;;;;;0.45;0.45;;;;;;;3.65;92.51;92763.98;1816694;78;21084;-76
2020/12/24 03:02:08;;;;;;;0.75;0.42;;;;;;;3.81;92.45;92761.08;1808518;78;21629;-80
2020/12/24 03:04:37;;;;;;;0.20;0.20;;;;;;;3.94;91.79;92767.55;1838434;76;21188;-79
2020/12/24 03:07:05;;;;;;;0.70;0.60;;;;;;;4.08;90.66;92763.66;1867541;76;21178;-76
2020/12/24 03:09:34;;;;;;;0.55;0.55;;;;;;;4.21;90.13;92754.73;1852802;77;21107;-74
2020/12/24 03:12:02;;;;;;;1.75;1.50;;;;;;;4.30;89.23;92744.45;1803865;78;21702;-80
2020/12/24 03:14:31;;;;;;;0.60;0.60;;;;;;;4.40;88.89;92751.84;1796670;78;21623;-77
2020/12/24 03:16:59;;;;;;;2.17;1.90;;;;;;;4.51;87.49;92738.45;1806087;78;22228;-75
2020/12/24 03:19:28;;;;;;;0.70;0.70;;;;;;;4.59;87.08;92732.00;1828630;77;21163;-78
2020/12/24 03:21:58;;;;;;;1.77;1.50;;;;;;;4.53;86.95;92761.17;1829507;77;21122;-79
2020/12/24 03:24:26;;;;;;;1.32;0.75;;;;;;;4.52;86.89;92771.75;1872105;76;21703;-80
2020/12/24 03:26:54;;;;;;;0.60;0.60;;;;;;;4.54;86.73;92765.41;1847951;76;21590;-77
2020/12/24 03:29:22;;;;;;;1.07;0.78;;;;;;;4.59;86.81;92750.84;1863718;76;22240;-79
2020/12/24 03:31:51;;;;;;;0.60;0.60;;;;;;;4.59;86.52;92747.58;1845380;76;21156;-80
2020/12/24 03:34:20;;;;;;;0.40;0.40;;;;;;;4.61;86.28;92749.89;1836803;77;21444;-81
2020/12/24 03:36:48;;;;;;;1.00;0.40;;;;;;;4.61;86.66;92744.50;1771495;77;21189;-76
2020/12/24 03:39:16;;;;;;;0.88;0.65;;;;;;;4.60;86.59;92737.58;1846024;77;21188;-76
2020/12/24 03:41:44;;;;;;;0.65;0.65;;;;;;;4.59;86.45;92736.80;1845829;77;21188;-78
2020/12/24 03:44:12;;;;;;;0.55;0.55;;;;;;;4.66;86.51;92747.41;1845680;77;21172;-77
2020/12/24 03:46:40;;;;;;;1.85;0.45;;;;;;;4.67;86.15;92730.89;1846180;77;21667;-76
2020/12/24 03:49:09;;;;;;;1.20;0.80;;;;;;;4.71;85.90;92723.61;1846750;77;21164;-75
2020/12/24 03:51:37;;;;;;;0.50;0.40;;;;;;;4.74;85.94;92731.50;1845255;77;21616;-77
2020/12/24 03:54:05;;;;;;;0.40;0.40;;;;;;;4.69;85.66;92732.63;1845838;77;21247;-76
2020/12/24 03:56:33;;;;;;;0.30;0.30;;;;;;;4.67;85.49;92725.51;1846171;77;21478;-80
2020/12/24 03:59:01;;;;;;;0.90;0.82;;;;;;;4.69;85.49;92715.13;1851939;77;21145;-76
2020/12/24 04:01:31;;;;;;;0.40;0.30;;;;;;;4.70;85.66;92722.63;1857226;77;21152;-77
2020/12/24 04:03:59;;;;;;;0.60;0.60;;;;;;;4.74;85.38;92727.45;1846006;77;21439;-76
2020/12/24 04:06:28;;;;;;;0.33;0.33;;;;;;;4.77;85.17;92711.90;1846465;77;21185;-76
2020/12/24 04:08:56;;;;;;;0.42;0.42;;;;;;;4.80;84.94;92707.11;1829779;77;21084;-78
2020/12/24 04:11:25;;;;;;;0.65;0.65;;;;;;;4.81;84.82;92705.41;1814681;78;21039;-78
2020/12/24 04:13:53;;;;;;;0.62;0.30;;;;;;;4.84;84.96;92701.17;1787319;79;21490;-79
2020/12/24 04:16:23;;;;;;;0.50;0.50;;;;;;;4.84;84.99;92695.20;1794963;79;21710;-78
2020/12/24 04:18:51;;;;;;;0.35;0.35;;;;;;;4.87;84.92;92689.65;1813343;78;21190;-77
2020/12/24 04:21:21;;;;;;;0.40;0.40;;;;;;;4.92;84.91;92700.06;1803242;79;21555;-81
2020/12/24 04:23:49;;;;;;;0.25;0.25;;;;;;;4.92;84.87;92696.59;1814439;78;21164;-79
2020/12/24 04:26:22;;;;;;;0.40;0.40;;;;;;;4.95;84.93;92720.09;1846099;76;21197;-78
2020/12/24 04:28:50;;;;;;;0.40;0.40;;;;;;;5.00;84.82;92715.69;1854248;76;21551;-77
2020/12/24 04:31:19;;;;;;;0.40;0.40;;;;;;;5.01;84.82;92720.72;1819420;78;21206;-78
2020/12/24 04:33:47;;;;;;;0.50;0.50;;;;;;;5.01;84.90;92714.56;1837547;78;21594;-78
2020/12/24 04:36:16;;;;;;;0.50;0.50;;;;;;;5.04;85.19;92724.56;1837844;76;21148;-78
2020/12/24 04:38:44;;;;;;;0.53;0.45;;;;;;;5.01;85.50;92724.77;1822031;78;21092;-78
2020/12/24 04:41:12;;;;;;;0.57;0.57;;;;;;;4.96;85.72;92706.81;1802386;79;21025;-77
2020/12/24 04:43:40;;;;;;;0.68;0.60;;;;;;;4.95;86.05;92712.78;1820002;76;22233;-76
2020/12/24 04:46:09;;;;;;;0.60;0.60;;;;;;;4.92;86.17;92721.61;1872080;76;21109;-79
2020/12/24 04:48:39;;;;;;;0.62;0.62;;;;;;;4.93;86.12;92729.91;1807922;79;21168;-76
2020/12/24 04:51:09;;;;;;;0.50;0.50;;;;;;;4.92;86.18;92745.86;1817588;78;21103;-80
2020/12/24 04:53:38;;;;;;;0.50;0.50;;;;;;;4.90;86.15;92727.20;1807990;78;21858;-76
2020/12/24 04:56:07;;;;;;;0.72;0.55;;;;;;;4.86;85.78;92727.17;1828212;77;21600;-76
2020/12/24 04:58:36;;;;;;;0.90;0.68;;;;;;;4.90;85.54;92727.97;1850808;77;21296;-77
2020/12/24 05:01:04;;;;;;;0.75;0.75;;;;;;;4.91;85.48;92742.98;1826449;78;21464;-81
2020/12/24 05:03:32;;;;;;;0.78;0.78;;;;;;;4.95;85.00;92740.30;1780992;78;21122;-76
2020/12/24 05:06:01;;;;;;;0.98;0.95;;;;;;;5.00;84.69;92747.47;1816139;78;21116;-77
2020/12/24 05:08:29;;;;;;;2.08;1.20;;;;;;;5.03;84.64;92747.28;1804158;78;21144;-73
2020/12/24 05:11:05;;;;;;;0.90;0.90;;;;;;;5.03;84.70;92754.02;1790902;79;21639;-76
2020/12/24 05:13:34;;;;;;;1.10;1.00;;;;;;;5.04;84.15;92740.73;1812876;78;21587;-74
2020/12/24 05:16:15;;;;;;;2.15;1.42;;;;;;;5.08;84.19;92725.38;1822980;78;21127;-78
2020/12/24 05:18:43;;;;;;;1.60;1.50;;;;;;;5.07;84.19;92700.33;1815350;77;21163;-75
2020/12/24 05:21:11;;;;;;;2.27;1.50;;;;;;;5.05;84.03;92702.64;1760346;79;21409;-77
2020/12/24 05:23:39;;;;;;;1.70;1.20;;;;;;;5.00;84.16;92692.23;1742861;80;21167;-77
2020/12/24 05:26:21;;;;;;;1.25;1.15;;;;;;;4.96;84.38;92696.04;1768291;78;21164;-78
2020/12/24 05:28:50;;;;;;;0.55;0.53;;;;;;;4.94;84.08;92682.95;1818518;78;21113;-78
2020/12/24 05:31:26;;;;;;;0.80;0.80;;;;;;;4.96;83.89;92706.23;1783165;80;21113;-78
2020/12/24 05:33:54;;;;;;;1.02;0.90;;;;;;;4.99;83.05;92702.80;1842603;77;21187;-76
2020/12/24 05:36:22;;;;;;;1.77;0.60;;;;;;;5.06;82.94;92689.94;1839112;77;21068;-78
2020/12/24 05:38:51;;;;;;;0.53;0.53;;;;;;;5.06;83.09;92705.53;1819269;78;21558;-76
2020/12/24 05:41:34;;;;;;;0.68;0.68;;;;;;;5.02;83.38;92706.67;1809109;77;21545;-74
2020/12/24 05:44:10;;;;;;;1.77;0.80;;;;;;;5.02;83.38;92706.67;1817022;78;21459;-73
2020/12/24 05:46:43;;;;;;;1.55;0.57;;;;;;;4.96;83.50;92702.77;1824323;77;22290;-76
2020/12/24 05:49:20;;;;;;;0.50;0.50;;;;;;;4.89;83.40;92702.18;1836917;77;21641;-76
2020/12/24 05:52:00;;;;;;;0.60;0.60;;;;;;;4.88;83.46;92693.88;1835930;76;21587;-77
2020/12/24 05:54:30;;;;;;;0.85;0.85;;;;;;;4.88;83.08;92700.03;1837062;78;21141;-76
2020/12/24 05:56:59;;;;;;;0.60;0.60;;;;;;;4.99;82.30;92703.38;1836549;78;21140;-78
2020/12/24 05:59:29;;;;;;;0.62;0.62;;;;;;;4.99;82.30;92703.38;1837348;77;21351;-77
2020/12/24 06:02:20;;;;;;;1.00;0.90;;;;;;;5.06;82.32;92700.14;1833502;78;21790;-79
2020/12/24 06:04:49;;;;;;;0.80;0.80;;;;;;;5.05;82.02;92711.31;1812429;79;21162;-77
2020/12/24 06:07:29;;;;;;;0.80;0.80;;;;;;;5.13;81.34;92703.45;1764282;81;21136;-77
2020/12/24 06:10:08;;;;;;;1.42;1.27;;;;;;;5.13;81.34;92703.45;1743447;80;21571;-75
2020/12/24 06:12:51;;;;;;;0.85;0.72;;;;;;;5.16;81.38;92700.59;1793501;79;21284;-78
2020/12/24 06:15:19;;;;;;;4.22;2.50;;;;;;;5.14;81.37;92697.48;1811363;77;21140;-75
2020/12/24 06:17:48;;;;;;;2.83;0.90;;;;;;;5.10;80.91;92688.03;1818120;78;21158;-79
2020/12/24 06:20:19;;;;;;;0.62;0.62;;;;;;;5.13;81.08;92697.30;1804609;78;21183;-80
2020/12/24 06:22:47;;;;;;;0.70;0.70;;;;;;;5.14;80.51;92699.60;1746738;79;21144;-75
2020/12/24 06:25:15;;;;;;;1.40;1.30;;;;;;;5.18;80.61;92677.48;1805525;79;21610;-79
2020/12/24 06:27:50;;;;;;;2.70;1.90;;;;;;;5.19;80.65;92715.43;1831307;77;21149;-74
2020/12/24 06:30:26;;;;;;;1.25;1.15;;;;;;;5.18;80.48;92703.66;1836997;77;21156;-77
2020/12/24 06:32:56;;;;;;;0.70;0.70;;;;;;;5.18;79.89;92692.88;1836723;78;21492;-78
2020/12/24 06:35:42;;;;;;;1.12;1.02;;;;;;;5.18;79.89;92692.88;1831456;78;21713;-76
2020/12/24 06:38:11;;;;;;;1.27;1.10;;;;;;;5.21;80.01;92690.20;1815392;78;22220;-77
2020/12/24 06:40:40;;;;;;;0.60;0.60;;;;;;;5.26;79.45;92713.32;1806375;79;21194;-78
2020/12/24 06:43:09;;;;;;;1.27;1.12;;;;;;;5.30;79.46;92722.99;1835389;77;21113;-79
2020/12/24 06:45:39;;;;;;;0.57;0.57;;;;;;;5.30;79.39;92708.16;1813582;77;21717;-76
2020/12/24 06:48:24;;;;;;;0.80;0.80;;;;;;;5.30;79.71;92685.25;1821704;77;21164;-78
2020/12/24 06:51:02;;;;;;;0.72;0.72;;;;;;;5.27;79.72;92702.76;1822788;78;21406;-79
2020/12/24 06:53:34;;;;;;;0.70;0.55;;;;;;;5.22;79.75;92713.88;1807221;77;21199;-78
2020/12/24 06:56:22;;;;;;;0.98;0.53;;;;;;;5.22;79.85;92683.66;1814654;77;21136;-78
2020/12/24 06:58:54;;;;;;;0.75;0.60;;;;;;;5.23;79.98;92696.58;1822437;78;21621;-79
2020/12/24 07:01:26;;;;;;;0.40;0.40;;;;;;;5.25;79.77;92685.59;1819871;78;21608;-77
2020/12/24 07:03:56;;;;;;;0.70;0.70;;;;;;;5.23;79.80;92675.78;1821983;78;22220;-80
2020/12/24 07:06:49;;;;;;;0.60;0.60;;;;;;;5.26;80.00;92667.50;1810404;78;21193;-79
2020/12/24 07:09:43;;;;;;;0.65;0.53;;;;;;;5.35;80.25;92651.75;1779818;79;21192;-78
2020/12/24 07:12:12;;;;;;;0.40;0.40;;;;;;;5.35;79.90;92663.31;1778045;79;21166;-76
2020/12/24 07:14:40;;;;;;;0.85;0.70;;;;;;;5.35;79.90;92663.31;1758925;80;21191;-75
2020/12/24 07:17:12;;;;;;;0.72;0.60;;;;;;;5.41;79.96;92696.05;1760350;80;21651;-76
2020/12/24 07:19:48;;;;;;;1.15;0.85;;;;;;;5.42;80.28;92677.39;1803081;78;21136;-75
2020/12/24 07:22:21;;;;;;;0.90;0.90;;;;;;;5.41;80.58;92654.84;1780723;79;21166;-75
2020/12/24 07:24:58;;;;;;;0.95;0.70;;;;;;;5.43;80.81;92684.33;1797564;79;21187;-73
2020/12/24 07:27:26;;;;;;;0.70;0.70;;;;;;;5.42;80.87;92679.33;1859868;76;21920;-73
2020/12/24 07:29:54;;;;;;;0.80;0.80;;;;;;;5.42;80.92;92676.63;1813590;78;21359;-74
2020/12/24 07:32:22;;;;;;;0.80;0.80;;;;;;;5.47;80.88;92646.59;1778966;79;21125;-75
2020/12/24 07:34:50;;;;;;;1.30;1.00;;;;;;;5.51;80.44;92652.76;1773658;80;21413;-75
2020/12/24 07:37:20;;;;;;;0.50;0.50;;;;;;;5.54;80.97;92666.25;1787589;79;21174;-75
2020/12/24 07:39:56;;;;;;;1.30;1.20;;;;;;;5.54;81.16;92670.30;1775404;79;21114;-75
2020/12/24 07:42:24;;;;;;;0.80;0.80;;;;;;;5.52;81.22;92665.08;1783747;79;21604;-75
2020/12/24 07:44:53;;;;;;;0.80;0.80;;;;;;;5.51;80.98;92664.31;1811421;79;21163;-76
2020/12/24 07:47:21;;;;;;;1.20;1.10;;;;;;;5.56;80.89;92665.28;1823125;78;21167;-73
2020/12/24 07:49:51;;;;;;;1.07;1.02;;;;;;;5.63;80.59;92648.35;1820825;77;21123;-75
2020/12/24 07:52:20;;;;;;;0.78;0.75;;;;;;;5.68;80.59;92659.34;1830159;77;21163;-76
2020/12/24 07:54:48;;;;;;;0.95;0.88;;;;;;;5.69;80.64;92685.18;1832877;77;22134;-75
2020/12/24 07:57:21;;;;;;;1.15;1.05;;;;;;;5.71;80.59;92665.33;1801828;77;21238;-74
2020/12/24 07:59:51;;;;;;;2.17;1.07;;;;;;;5.73;80.58;92663.80;1846558;77;21680;-74
2020/12/24 08:02:20;;;;;;;1.90;1.33;;;;;;;5.73;80.58;92663.80;1788957;78;21084;-74
2020/12/24 08:04:55;;;;;;;1.37;1.27;;;;;;;5.78;80.46;92672.85;1838315;77;21175;-74
2020/12/24 08:07:24;;;;;;;1.35;1.10;;;;;;;5.81;80.62;92669.98;1802284;78;21363;-75
2020/12/24 08:09:53;;;;;;;1.30;1.20;;;;;;;5.83;80.69;92652.84;1797539;78;22093;-75
2020/12/24 08:12:22;;;;;;;1.47;1.37;;;;;;;5.83;80.95;92672.50;1790447;80;21603;-74
2020/12/24 08:14:51;;;;;;;2.37;1.98;;;;;;;5.85;80.64;92672.10;1783572;80;21088;-75
2020/12/24 08:17:32;;;;;;;2.05;1.80;;;;;;;5.85;80.85;92672.87;1789224;79;21068;-74
2020/12/24 08:20:05;;;;;;;2.10;1.70;;;;;;;5.86;81.08;92654.75;1807625;79;22306;-74
2020/12/24 08:22:46;;;;;;;2.30;2.10;;;;;;;5.85;81.41;92659.38;1826266;77;21124;-75
2020/12/24 08:25:15;;;;;;;2.37;2.17;;;;;;;5.84;81.95;92645.70;1836425;78;21155;-74
2020/12/24 08:28:05;;;;;;;2.50;2.05;;;;;;;5.83;82.34;92642.05;1835391;77;21152;-76
2020/12/24 08:30:36;;;;;;;3.02;2.47;;;;;;;5.81;82.81;92649.16;1793552;78;21175;-72
2020/12/24 08:33:06;;;;;;;2.47;2.10;;;;;;;5.81;83.07;92624.11;1760321;78;21413;-73
2020/12/24 08:35:35;;;;;;;2.25;2.05;;;;;;;5.79;83.29;92635.85;1816902;78;21211;-74
2020/12/24 08:38:15;;;;;;;3.20;2.92;;;;;;;5.80;83.75;92638.77;1806572;78;21168;-73
2020/12/24 08:40:43;;;;;;;3.25;2.90;;;;;;;5.82;84.18;92643.95;1796245;78;21164;-75
2020/12/24 08:43:12;;;;;;;2.83;2.30;;;;;;;5.82;84.22;92663.41;1850418;76;21606;-72
2020/12/24 08:45:48;;;;;;;2.47;2.27;;;;;;;5.82;84.19;92648.00;1805378;78;21403;-73
2020/12/24 08:48:33;;;;;;;3.15;2.80;;;;;;;5.84;84.16;92646.28;1782059;80;21436;-72
2020/12/24 08:51:25;;;;;;;4.15;3.02;;;;;;;5.85;84.43;92649.94;1799495;79;21723;-74
2020/12/24 08:54:06;;;;;;;3.52;3.08;;;;;;;5.84;84.90;92667.87;1792633;79;21198;-76
2020/12/24 08:56:36;;;;;;;4.42;3.87;;;;;;;5.82;85.15;92672.28;1820491;78;21186;-76
2020/12/24 08:59:09;;;;;;;3.50;3.20;;;;;;;5.81;85.63;92664.58;1804073;79;22218;-78
2020/12/24 09:01:42;;;;;;;3.15;2.85;;;;;;;5.74;85.56;92641.05;1782857;79;21165;-78
2020/12/24 09:04:12;;;;;;;3.40;3.10;;;;;;;5.72;85.93;92624.49;1852602;76;21152;-80
2020/12/24 09:06:41;;;;;;;2.83;2.55;;;;;;;5.70;86.41;92644.91;1834344;76;21154;-83
2020/12/24 09:09:26;;;;;;;3.90;3.00;;;;;;;5.66;86.39;92652.98;1805546;77;21164;-85
2020/12/24 09:11:55;;;;;;;4.28;3.80;;;;;;;5.65;86.36;92668.98;1861822;77;21237;-81
2020/12/24 09:14:24;;;;;;;4.85;3.85;;;;;;;5.67;86.66;92647.78;1861680;77;21195;-85
2020/12/24 09:16:58;;;;;;;4.25;3.40;;;;;;;5.67;86.47;92647.78;1857312;76;21167;-82
2020/12/24 09:19:26;;;;;;;5.83;4.05;;;;;;;5.69;86.73;92646.83;1849485;76;21638;-78
2020/12/24 09:21:58;;;;;;;4.35;3.80;;;;;;;5.70;86.85;92648.37;1834077;76;21160;-84
2020/12/24 09:24:26;;;;;;;3.55;3.25;;;;;;;5.70;86.94;92646.25;1837559;76;21306;-85
2020/12/24 09:26:56;;;;;;;3.60;3.30;;;;;;;5.69;87.34;92641.44;1878245;75;21184;-80
2020/12/24 09:29:27;;;;;;;3.60;3.30;;;;;;;5.71;87.59;92631.02;1867976;76;21157;-85
2020/12/24 09:31:59;;;;;;;3.00;2.70;;;;;;;5.71;87.89;92666.67;1863003;76;21166;-80
2020/12/24 09:34:28;;;;;;;4.37;3.98;;;;;;;5.68;87.77;92638.55;1865671;76;21160;-82
2020/12/24 09:36:58;;;;;;;3.72;3.37;;;;;;;5.67;88.24;92617.34;1839269;76;21348;-84
2020/12/24 09:39:26;;;;;;;4.20;3.80;;;;;;;5.67;88.62;92622.73;1820377;77;21171;-82
2020/12/24 09:41:54;;;;;;;4.67;3.60;;;;;;;5.64;89.05;92630.23;1853880;77;21186;-80
2020/12/24 09:44:23;;;;;;;3.35;3.05;;;;;;;5.64;89.12;92630.23;1832335;78;21141;-82
2020/12/24 09:46:51;;;;;;;4.58;3.75;;;;;;;5.64;88.79;92638.33;1843655;77;21144;-82
2020/12/24 09:49:19;;;;;;;3.58;3.27;;;;;;;5.63;88.92;92620.61;1846528;76;22225;-81
2020/12/24 09:51:48;;;;;;;3.62;3.33;;;;;;;5.62;89.07;92615.03;1825938;77;21456;-84
2020/12/24 09:54:18;;;;;;;3.45;3.15;;;;;;;5.63;89.01;92614.64;1790718;78;21281;-82
2020/12/24 09:56:46;;;;;;;3.50;3.20;;;;;;;5.65;88.92;92619.67;1791363;80;21174;-82
2020/12/24 09:59:14;;;;;;;4.47;3.87;;;;;;;5.66;88.75;92602.32;1807825;79;21160;-82
2020/12/24 10:01:45;;;;;;;4.28;3.33;;;;;;;5.67;88.79;92599.81;1804066;78;21192;-86
2020/12/24 10:04:13;;;;;;;3.85;3.45;;;;;;;5.69;88.67;92584.80;1804226;79;21181;-85
2020/12/24 10:06:41;;;;;;;3.40;3.10;;;;;;;5.69;88.65;92575.35;1813727;78;21136;-82
2020/12/24 10:09:13;;;;;;;2.98;2.70;;;;;;;5.72;88.81;92575.94;1838276;78;21171;-81
2020/12/24 10:11:40;;;;;;;5.87;3.75;;;;;;;5.78;88.35;92579.02;1819302;78;21188;-87
2020/12/24 10:14:08;;;;;;;3.90;3.58;;;;;;;5.80;88.17;92584.81;1837706;77;21517;-81
2020/12/24 10:16:36;;;;;;;3.15;2.92;;;;;;;5.84;88.01;92555.90;1820766;78;21194;-85
2020/12/24 10:19:05;;;;;;;4.55;3.92;;;;;;;5.88;87.94;92545.88;1823232;76;21598;-84
2020/12/24 10:21:33;;;;;;;4.72;3.22;;;;;;;5.92;88.06;92555.32;1833485;78;21187;-85
2020/12/24 10:24:03;;;;;;;;;;;;;;;;;;;;;
2020/12/24 10:26:31;;;;;;;2.92;2.72;;;;;;;5.93;87.50;92554.19;1777543;80;21374;-83
2020/12/24 10:29:00;;;;;;;2.72;2.50;;;;;;;5.97;87.41;92543.58;1803668;79;21193;-81
2020/12/24 10:31:28;;;;;;;3.92;3.40;;;;;;;6.01;87.05;92547.04;1811377;78;21157;-85
2020/12/24 10:33:56;;;;;;;4.78;4.28;;;;;;;6.04;86.85;92540.10;1820423;78;21152;-80
2020/12/24 10:36:24;;;;;;;3.62;3.33;;;;;;;6.07;87.05;92539.33;1837629;78;21494;-86
2020/12/24 10:38:53;;;;;;;4.50;3.52;;;;;;;6.10;86.69;92521.61;1814964;79;21188;-79
2020/12/24 10:41:21;;;;;;;5.30;4.60;;;;;;;6.14;86.68;92535.28;1803517;78;21153;-80
2020/12/24 10:43:49;;;;;;;3.02;2.83;;;;;;;6.15;86.50;92528.72;1785691;78;21153;-79
2020/12/24 10:46:21;;;;;;;4.83;3.80;;;;;;;6.18;86.12;92528.53;1793803;78;21205;-83
2020/12/24 10:48:48;;;;;;;6.70;5.10;;;;;;;6.20;86.20;92523.49;1811486;78;21144;-81
2020/12/24 10:51:17;;;;;;;4.35;3.92;;;;;;;6.21;86.22;92526.41;1802482;78;22460;-82
2020/12/24 10:53:46;;;;;;;3.92;3.62;;;;;;;6.22;86.27;92519.25;1828563;78;21606;-82
2020/12/24 10:56:15;;;;;;;5.62;3.62;;;;;;;6.20;86.38;92524.26;1848106;77;21167;-80
2020/12/24 10:58:44;;;;;;;4.05;3.35;;;;;;;6.20;86.42;92502.66;1834919;77;21910;-79
2020/12/24 11:01:14;;;;;;;3.75;3.42;;;;;;;6.19;86.50;92556.47;1818849;77;21636;-81
2020/12/24 11:03:42;;;;;;;3.20;2.70;;;;;;;6.22;86.22;92513.09;1815506;76;21272;-81
2020/12/24 11:06:18;;;;;;;3.20;3.00;;;;;;;6.22;86.30;92530.05;1840898;78;21176;-82
2020/12/24 11:08:47;;;;;;;4.00;3.60;;;;;;;6.22;86.24;92507.11;1811817;78;21175;-79
2020/12/24 11:11:16;;;;;;;3.50;3.20;;;;;;;6.23;86.27;92507.88;1811059;77;21236;-80
2020/12/24 11:13:45;;;;;;;8.30;4.60;;;;;;;6.26;86.28;92510.56;1810888;79;21458;-82
2020/12/24 11:16:24;;;;;;;3.35;3.00;;;;;;;6.28;86.24;92512.86;1803445;79;21316;-83
2020/12/24 11:18:52;;;;;;;4.03;3.65;;;;;;;6.30;85.90;92493.78;1802244;77;21497;-79
2020/12/24 11:21:21;;;;;;;3.75;3.35;;;;;;;6.35;85.69;92520.19;1857479;77;21139;-76
2020/12/24 11:23:49;;;;;;;2.65;2.40;;;;;;;6.36;85.46;92506.31;1816742;77;21208;-81
2020/12/24 11:26:22;;;;;;;3.62;3.33;;;;;;;6.38;85.29;92489.12;1843487;77;21143;-79
2020/12/24 11:28:51;;;;;;;4.03;3.72;;;;;;;6.40;84.59;92502.25;1827424;77;21343;-83
2020/12/24 11:31:28;;;;;;;3.42;3.12;;;;;;;6.47;84.10;92498.16;1801588;79;21145;-81
2020/12/24 11:33:57;;;;;;;2.50;2.30;;;;;;;6.53;83.94;92499.30;1802512;77;21131;-84
2020/12/24 11:36:26;;;;;;;3.35;2.77;;;;;;;6.56;83.67;92499.29;1858004;77;21147;-81
2020/12/24 11:38:55;;;;;;;3.37;2.90;;;;;;;6.54;83.54;92498.13;1816031;79;21173;-77
2020/12/24 11:41:25;;;;;;;3.33;3.00;;;;;;;6.57;83.41;92481.91;1836350;77;21403;-77
2020/12/24 11:43:54;;;;;;;2.52;2.35;;;;;;;6.61;83.10;92477.84;1832192;77;21164;-80
2020/12/24 11:46:24;;;;;;;3.05;2.60;;;;;;;6.63;83.19;92484.99;1823229;78;22209;-78
2020/12/24 11:48:52;;;;;;;2.77;2.58;;;;;;;6.62;83.23;92479.41;1821831;78;21424;-80
2020/12/24 11:51:21;;;;;;;2.72;2.52;;;;;;;6.64;83.33;92483.06;1811500;79;21595;-80
2020/12/24 11:53:49;;;;;;;2.80;2.22;;;;;;;6.64;83.24;92466.27;1843981;77;21439;-77
2020/12/24 11:56:21;;;;;;;2.20;2.00;;;;;;;6.64;82.79;92434.44;1791572;77;21198;-78